Details for AirAsia India at VOBL




Go Back


Latest METAR
Local Time

VOBL 181300Z 27008KT 8000 FEW012 SCT018 FEW025TCU 27/18 Q1011 NOSIG
18/09/2018, 18:47:19

Description
Results
AirAsia India Logo
Number of Pilots based at VOBL
0 Pilots Based here
Number of AirAsia India Flights Departed from VOBL
0 Flights Departed
Number of AirAsia India Flights Arrived at VOBL
0 Flights Arrived
Number of AirAsia India Schedules Departing from VOBL
45 Schedules
Number of AirAsia India Schedules Arriving at VOBL
47 Schedules
Number of AirAsia India Schedules Departing from VOBL availible today
30 Schedules Today
Number of AirAsia India Schedules Arriving at VOBL availible today
31 Schedules Today
Average Landing Rate at VOBL
-203 fpm
AirAsia India Average Landing Rate at VOBL
0 fpm
Total Fuel Purchased at VOBL by AirAsia India
0.00 kgs / 0.00 lbs

Pilots Based at VOBL


Pilot ID
Pilot Name
Pilot Rank
No. of Flights
No. of Flying Hours
There are no pilots assigned to this hub!   Will you be the first?
Content